Time;durP1;ratioP1;P1;durP2;ratioP2;P2;SDS_P1;SDS_P2;PMS_P1;PMS_P2;Temp;Humidity;BMP_temperature;BMP_pressure;BME280_temperature;BME280_humidity;BME280_pressure;Samples;Min_cycle;Max_cycle;Signal;HPM_P1;HPM_P2
2022/03/11 00:00:48;;;;;;;;;;;6.10;68.80;;;;;;5067122;28;19953;-73
2022/03/11 00:03:15;;;;;;;;;;;6.10;68.80;;;;;;5086566;28;19923;-73
2022/03/11 00:05:41;;;;;;;;;;;6.10;68.80;;;;;;5070920;28;19923;-72
2022/03/11 00:08:07;;;;;;;;;;;6.10;68.90;;;;;;5086782;28;19922;-73
2022/03/11 00:10:33;;;;;;;;;;;6.10;68.70;;;;;;5068626;28;19916;-73
2022/03/11 00:12:58;;;;;;;;;;;6.10;68.60;;;;;;5085920;28;19912;-73
2022/03/11 00:15:24;;;;;;;;;;;6.10;68.60;;;;;;5085060;28;19912;-72
2022/03/11 00:17:50;;;;;;;;;;;6.10;68.60;;;;;;5086386;28;19987;-73
2022/03/11 00:20:19;;;;;;;;;;;6.00;68.50;;;;;;5084880;28;20410;-72
2022/03/11 00:22:48;;;;;;;;;;;6.00;68.60;;;;;;5088061;28;19916;-73
2022/03/11 00:25:14;;;;;;;;;;;6.10;68.70;;;;;;5086535;28;19916;-73
2022/03/11 00:27:39;;;;;;;;;;;6.00;68.60;;;;;;5067189;28;19915;-73
2022/03/11 00:30:05;;;;;;;;;;;6.00;68.20;;;;;;5085890;28;19912;-73
2022/03/11 00:32:31;;;;;;;;;;;6.00;68.30;;;;;;5087590;28;19969;-73
2022/03/11 00:34:56;;;;;;;;;;;6.00;68.40;;;;;;5085509;28;20642;-73
2022/03/11 00:37:22;;;;;;;;;;;6.00;68.40;;;;;;5068653;28;19912;-73
2022/03/11 00:39:47;;;;;;;;;;;6.00;68.40;;;;;;5083813;28;19920;-73
2022/03/11 00:42:13;;;;;;;;;;;6.00;68.40;;;;;;5082925;28;20387;-73
2022/03/11 00:44:39;;;;;;;;;;;6.00;68.50;;;;;;5068367;28;20432;-73
2022/03/11 00:47:05;;;;;;;;;;;6.00;68.40;;;;;;5088125;28;19949;-73
2022/03/11 00:49:31;;;;;;;;;;;6.00;68.30;;;;;;5081493;28;19955;-73
2022/03/11 00:51:56;;;;;;;;;;;6.00;68.40;;;;;;5068552;28;20701;-73
2022/03/11 00:54:22;;;;;;;;;;;6.00;68.30;;;;;;5086333;28;19913;-72
2022/03/11 00:56:47;;;;;;;;;;;6.00;68.50;;;;;;5085404;28;19943;-73
2022/03/11 00:59:13;;;;;;;;;;;6.00;68.70;;;;;;5087917;28;19970;-73
2022/03/11 01:01:38;;;;;;;;;;;6.00;68.60;;;;;;5083804;28;19916;-73
2022/03/11 01:04:04;;;;;;;;;;;5.90;68.50;;;;;;5088395;28;19915;-73
2022/03/11 01:06:29;;;;;;;;;;;6.00;68.40;;;;;;5067650;28;19915;-73
2022/03/11 01:08:55;;;;;;;;;;;5.90;68.60;;;;;;5086947;28;20588;-73
2022/03/11 01:11:20;;;;;;;;;;;5.90;68.20;;;;;;5066421;28;19916;-72
2022/03/11 01:13:46;;;;;;;;;;;5.90;68.50;;;;;;5083440;28;19912;-73
2022/03/11 01:16:11;;;;;;;;;;;5.90;68.50;;;;;;5083365;28;19928;-73
2022/03/11 01:18:37;;;;;;;;;;;5.90;68.30;;;;;;5066060;28;19916;-72
2022/03/11 01:21:03;;;;;;;;;;;5.90;68.50;;;;;;5066553;28;19955;-72
2022/03/11 01:23:29;;;;;;;;;;;5.90;68.50;;;;;;5085332;28;20344;-73
2022/03/11 01:25:54;;;;;;;;;;;5.90;68.40;;;;;;5066470;28;19948;-72
2022/03/11 01:28:20;;;;;;;;;;;5.90;68.60;;;;;;5085835;28;20528;-73
2022/03/11 01:30:45;;;;;;;;;;;5.90;68.50;;;;;;5085850;28;20315;-73
2022/03/11 01:33:11;;;;;;;;;;;5.90;68.40;;;;;;5080375;28;19947;-73
2022/03/11 01:35:36;;;;;;;;;;;5.90;68.40;;;;;;5085354;28;20570;-73
2022/03/11 01:38:02;;;;;;;;;;;5.90;68.30;;;;;;5083547;28;20464;-73
2022/03/11 01:40:27;;;;;;;;;;;5.90;68.30;;;;;;5086874;28;20615;-72
2022/03/11 01:42:53;;;;;;;;;;;5.80;68.40;;;;;;5084099;28;20333;-73
2022/03/11 01:45:18;;;;;;;;;;;5.80;68.20;;;;;;5084422;28;19969;-73
2022/03/11 01:47:44;;;;;;;;;;;5.80;68.40;;;;;;5066587;28;20529;-73
2022/03/11 01:50:10;;;;;;;;;;;5.80;68.40;;;;;;5086853;28;19919;-73
2022/03/11 01:52:36;;;;;;;;;;;5.80;68.30;;;;;;5083759;28;19912;-72
2022/03/11 01:55:02;;;;;;;;;;;5.80;68.40;;;;;;5085759;28;19916;-73
2022/03/11 01:57:27;;;;;;;;;;;5.80;68.30;;;;;;5083334;28;20337;-72
2022/03/11 01:59:53;;;;;;;;;;;5.80;68.40;;;;;;5086849;28;19923;-73
2022/03/11 02:02:18;;;;;;;;;;;5.80;68.30;;;;;;5084693;28;20332;-73
2022/03/11 02:04:44;;;;;;;;;;;5.80;68.30;;;;;;5066696;28;20300;-73
2022/03/11 02:07:10;;;;;;;;;;;5.80;68.10;;;;;;5067526;28;20440;-73
2022/03/11 02:09:36;;;;;;;;;;;5.80;68.10;;;;;;5083886;28;20284;-73
2022/03/11 02:12:02;;;;;;;;;;;5.80;68.10;;;;;;5087185;28;19916;-72
2022/03/11 02:14:28;;;;;;;;;;;5.80;68.10;;;;;;5063820;28;19923;-73
2022/03/11 02:16:53;;;;;;;;;;;5.80;68.10;;;;;;5084425;28;19919;-73
2022/03/11 02:19:19;;;;;;;;;;;5.80;68.20;;;;;;5082186;28;19912;-73
2022/03/11 02:21:45;;;;;;;;;;;5.80;68.10;;;;;;5086002;28;19970;-73
2022/03/11 02:24:11;;;;;;;;;;;5.80;68.20;;;;;;5080727;28;20312;-73
2022/03/11 02:26:37;;;;;;;;;;;5.80;68.10;;;;;;5087000;28;19913;-73
2022/03/11 02:29:03;;;;;;;;;;;5.80;68.20;;;;;;5082302;28;19920;-72
2022/03/11 02:31:29;;;;;;;;;;;5.80;68.20;;;;;;5083061;28;20335;-73
2022/03/11 02:33:55;;;;;;;;;;;5.80;68.20;;;;;;5066377;28;19977;-73
2022/03/11 02:36:21;;;;;;;;;;;5.80;68.30;;;;;;5071991;28;19913;-73
2022/03/11 02:38:46;;;;;;;;;;;5.80;68.10;;;;;;5087861;28;19931;-73
2022/03/11 02:41:12;;;;;;;;;;;5.80;68.20;;;;;;5090456;28;19916;-73
2022/03/11 02:43:38;;;;;;;;;;;5.80;68.20;;;;;;5088990;28;19912;-73
2022/03/11 02:46:03;;;;;;;;;;;5.80;68.30;;;;;;5088144;28;19918;-73
2022/03/11 02:48:29;;;;;;;;;;;5.70;68.20;;;;;;5069734;28;19917;-73
2022/03/11 02:50:54;;;;;;;;;;;5.80;68.30;;;;;;5065278;28;19919;-72
2022/03/11 02:53:20;;;;;;;;;;;5.70;68.30;;;;;;5086691;28;19908;-73
2022/03/11 02:55:45;;;;;;;;;;;5.70;68.20;;;;;;5088267;28;19924;-73
2022/03/11 02:58:11;;;;;;;;;;;5.70;68.30;;;;;;5088734;28;19912;-73
2022/03/11 03:00:37;;;;;;;;;;;5.70;68.20;;;;;;5086607;28;19923;-73
2022/03/11 03:03:02;;;;;;;;;;;5.70;68.10;;;;;;5090250;28;19920;-73
2022/03/11 03:05:28;;;;;;;;;;;5.70;68.20;;;;;;5086643;28;19947;-73
2022/03/11 03:07:54;;;;;;;;;;;5.70;68.20;;;;;;5089629;28;19912;-73
2022/03/11 03:10:19;;;;;;;;;;;5.70;68.20;;;;;;5067079;28;19979;-73
2022/03/11 03:12:45;;;;;;;;;;;5.70;68.30;;;;;;5090206;28;19908;-72
2022/03/11 03:15:10;;;;;;;;;;;5.70;68.20;;;;;;5088200;28;19916;-73
2022/03/11 03:17:36;;;;;;;;;;;5.70;68.40;;;;;;5085882;28;20330;-73
2022/03/11 03:20:03;;;;;;;;;;;5.70;68.40;;;;;;5087248;28;19916;-73
2022/03/11 03:22:29;;;;;;;;;;;5.70;68.40;;;;;;5085445;28;19947;-73
2022/03/11 03:24:54;;;;;;;;;;;5.60;68.30;;;;;;5090451;28;19934;-73
2022/03/11 03:27:19;;;;;;;;;;;5.70;68.40;;;;;;5087768;28;19986;-72
2022/03/11 03:29:45;;;;;;;;;;;5.60;68.30;;;;;;5070170;28;19919;-73
2022/03/11 03:32:10;;;;;;;;;;;5.60;68.30;;;;;;5085440;28;19916;-72
2022/03/11 03:34:37;;;;;;;;;;;5.60;68.50;;;;;;5089665;28;19923;-72
2022/03/11 03:37:04;;;;;;;;;;;5.60;68.50;;;;;;5086234;28;20013;-73
2022/03/11 03:39:29;;;;;;;;;;;5.60;68.40;;;;;;5086867;28;19930;-73
2022/03/11 03:41:55;;;;;;;;;;;5.60;68.50;;;;;;5084612;28;19916;-73
2022/03/11 03:44:21;;;;;;;;;;;5.60;68.50;;;;;;5089664;28;19912;-73
2022/03/11 03:46:47;;;;;;;;;;;5.50;68.50;;;;;;5083573;28;19916;-73
2022/03/11 03:49:12;;;;;;;;;;;5.50;68.50;;;;;;5088743;28;19928;-73
2022/03/11 03:51:38;;;;;;;;;;;5.50;68.50;;;;;;5065834;28;19908;-73
2022/03/11 03:54:04;;;;;;;;;;;5.60;68.50;;;;;;5087788;28;19908;-73
2022/03/11 03:56:30;;;;;;;;;;;5.50;68.20;;;;;;5089393;28;20326;-73
2022/03/11 03:58:55;;;;;;;;;;;5.50;68.30;;;;;;5085862;28;19916;-72
2022/03/11 04:01:21;;;;;;;;;;;5.50;68.30;;;;;;5087929;28;20372;-72
2022/03/11 04:03:46;;;;;;;;;;;5.50;68.30;;;;;;5085989;28;19913;-73
2022/03/11 04:06:12;;;;;;;;;;;5.50;67.90;;;;;;5068527;28;19955;-73
2022/03/11 04:08:37;;;;;;;;;;;5.50;68.30;;;;;;5085782;28;19912;-73
2022/03/11 04:11:03;;;;;;;;;;;5.50;68.20;;;;;;5087817;28;19970;-73
2022/03/11 04:13:29;;;;;;;;;;;5.50;68.20;;;;;;5083034;28;19920;-73
2022/03/11 04:15:54;;;;;;;;;;;5.50;68.30;;;;;;5087296;28;19908;-73
2022/03/11 04:18:19;;;;;;;;;;;5.50;68.40;;;;;;5083318;28;19924;-73
2022/03/11 04:20:45;;;;;;;;;;;5.40;68.10;;;;;;5089824;28;20007;-73
2022/03/11 04:23:10;;;;;;;;;;;5.40;68.20;;;;;;5068692;28;20335;-73
2022/03/11 04:25:36;;;;;;;;;;;5.40;68.20;;;;;;5087121;28;19919;-73
2022/03/11 04:28:01;;;;;;;;;;;5.40;68.20;;;;;;5085391;28;20045;-73
2022/03/11 04:30:27;;;;;;;;;;;5.40;68.30;;;;;;5086236;28;19916;-73
2022/03/11 04:32:52;;;;;;;;;;;5.40;68.10;;;;;;5087252;28;20380;-73
2022/03/11 04:35:19;;;;;;;;;;;5.40;68.20;;;;;;5067807;28;19923;-73
2022/03/11 04:37:44;;;;;;;;;;;5.40;68.20;;;;;;5085928;28;19919;-73
2022/03/11 04:40:10;;;;;;;;;;;5.40;68.40;;;;;;5078108;28;19920;-73
2022/03/11 04:42:36;;;;;;;;;;;5.40;68.40;;;;;;5060977;28;19920;-73
2022/03/11 04:45:02;;;;;;;;;;;5.40;68.30;;;;;;5067221;28;19916;-73
2022/03/11 04:47:28;;;;;;;;;;;5.40;68.40;;;;;;5087671;28;19927;-73
2022/03/11 04:49:53;;;;;;;;;;;5.40;68.20;;;;;;5083300;28;19920;-73
2022/03/11 04:52:19;;;;;;;;;;;5.30;67.90;;;;;;5086278;28;19944;-73
2022/03/11 04:54:44;;;;;;;;;;;5.30;68.20;;;;;;5063353;28;19923;-73
2022/03/11 04:57:10;;;;;;;;;;;5.30;68.20;;;;;;5085742;28;19916;-73
2022/03/11 04:59:35;;;;;;;;;;;5.30;68.20;;;;;;5083014;28;20412;-73
2022/03/11 05:02:01;;;;;;;;;;;5.30;68.20;;;;;;5081315;28;19924;-72
2022/03/11 05:04:26;;;;;;;;;;;5.30;68.20;;;;;;5084170;28;20343;-72
2022/03/11 05:06:52;;;;;;;;;;;5.30;68.20;;;;;;5083980;28;19917;-72
2022/03/11 05:09:17;;;;;;;;;;;5.30;68.20;;;;;;5069218;28;19948;-72
2022/03/11 05:11:43;;;;;;;;;;;5.30;68.10;;;;;;5064064;28;19924;-72
2022/03/11 05:14:08;;;;;;;;;;;5.30;67.80;;;;;;5068960;28;19913;-73
2022/03/11 05:16:34;;;;;;;;;;;5.30;67.90;;;;;;5065214;28;19912;-73
2022/03/11 05:18:59;;;;;;;;;;;5.30;68.30;;;;;;5087494;28;20261;-73
2022/03/11 05:21:25;;;;;;;;;;;5.30;68.10;;;;;;5069417;28;20003;-72
2022/03/11 05:23:50;;;;;;;;;;;5.30;68.10;;;;;;5085923;28;19919;-72
2022/03/11 05:26:25;;;;;;;;;;;5.30;68.00;;;;;;5081377;28;19923;-72
2022/03/11 05:28:54;;;;;;;;;;;5.30;68.10;;;;;;5075108;28;19919;-72
2022/03/11 05:31:20;;;;;;;;;;;5.30;68.70;;;;;;5083379;28;19912;-72
2022/03/11 05:33:46;;;;;;;;;;;5.30;68.20;;;;;;5084318;28;20407;-73
2022/03/11 05:36:11;;;;;;;;;;;5.20;68.00;;;;;;5084629;28;19969;-73
2022/03/11 05:38:37;;;;;;;;;;;5.20;67.90;;;;;;5083355;28;19927;-73
2022/03/11 05:41:02;;;;;;;;;;;5.20;68.10;;;;;;5085481;28;19916;-73
2022/03/11 05:43:29;;;;;;;;;;;5.20;68.20;;;;;;5066851;28;20159;-73
2022/03/11 05:45:55;;;;;;;;;;;5.20;68.10;;;;;;5084081;28;19999;-73
2022/03/11 05:48:20;;;;;;;;;;;5.20;68.20;;;;;;5086618;28;20400;-72
2022/03/11 05:50:46;;;;;;;;;;;5.20;68.20;;;;;;5085592;28;19943;-73
2022/03/11 05:53:11;;;;;;;;;;;5.20;68.20;;;;;;5080482;28;19940;-72
2022/03/11 05:55:37;;;;;;;;;;;5.20;68.30;;;;;;5087208;28;20269;-72
2022/03/11 05:58:02;;;;;;;;;;;5.20;68.20;;;;;;5085010;28;19920;-73
2022/03/11 06:00:28;;;;;;;;;;;5.20;68.20;;;;;;5068631;28;19923;-73
2022/03/11 06:02:53;;;;;;;;;;;5.20;68.10;;;;;;5083548;28;19923;-73
2022/03/11 06:05:19;;;;;;;;;;;5.20;68.30;;;;;;5085974;28;20261;-73
2022/03/11 06:07:44;;;;;;;;;;;5.10;68.10;;;;;;5082503;28;19955;-73
2022/03/11 06:10:10;;;;;;;;;;;5.10;68.10;;;;;;5086222;28;19912;-73
2022/03/11 06:12:36;;;;;;;;;;;5.10;68.30;;;;;;5084501;28;20391;-72
2022/03/11 06:15:06;;;;;;;;;;;5.10;68.20;;;;;;5068752;28;19918;-73
2022/03/11 06:17:31;;;;;;;;;;;5.10;67.60;;;;;;5078938;28;20385;-73
2022/03/11 06:19:57;;;;;;;;;;;5.20;68.20;;;;;;5086426;28;19919;-73
2022/03/11 06:22:22;;;;;;;;;;;5.10;68.00;;;;;;5090044;28;19920;-72
2022/03/11 06:24:48;;;;;;;;;;;5.10;67.90;;;;;;5086953;28;20265;-73
2022/03/11 06:27:14;;;;;;;;;;;5.10;68.20;;;;;;5084838;28;20277;-73
2022/03/11 06:29:39;;;;;;;;;;;5.10;68.00;;;;;;5060223;28;20053;-73
2022/03/11 06:32:06;;;;;;;;;;;5.10;67.90;;;;;;5080998;28;19919;-72
2022/03/11 06:34:32;;;;;;;;;;;5.10;68.30;;;;;;5081543;28;19922;-72
2022/03/11 06:36:57;;;;;;;;;;;5.10;67.80;;;;;;5081213;28;19912;-73
2022/03/11 06:39:23;;;;;;;;;;;5.10;67.60;;;;;;5066100;28;20484;-73
2022/03/11 06:41:48;;;;;;;;;;;5.10;67.80;;;;;;5066636;28;19984;-73
2022/03/11 06:44:16;;;;;;;;;;;5.10;68.10;;;;;;5082545;28;20002;-73
2022/03/11 06:46:42;;;;;;;;;;;5.10;68.20;;;;;;5084076;28;19923;-72
2022/03/11 06:49:07;;;;;;;;;;;5.10;68.00;;;;;;5081741;28;19912;-73
2022/03/11 06:51:33;;;;;;;;;;;5.10;68.30;;;;;;5067831;28;20010;-73
2022/03/11 06:53:58;;;;;;;;;;;5.10;68.20;;;;;;5083869;28;19916;-72
2022/03/11 06:56:24;;;;;;;;;;;5.10;68.20;;;;;;5083245;28;19912;-73
2022/03/11 06:58:49;;;;;;;;;;;5.10;67.80;;;;;;5084286;28;19942;-73
2022/03/11 07:01:17;;;;;;;;;;;5.10;67.50;;;;;;5083155;28;19912;-73
2022/03/11 07:03:43;;;;;;;;;;;5.10;68.00;;;;;;5083818;28;19947;-72
2022/03/11 07:06:08;;;;;;;;;;;5.10;68.50;;;;;;5082617;28;20353;-73
2022/03/11 07:08:34;;;;;;;;;;;5.10;67.40;;;;;;5067037;28;19943;-73
2022/03/11 07:10:59;;;;;;;;;;;5.20;67.40;;;;;;5082642;28;19912;-72
2022/03/11 07:13:25;;;;;;;;;;;5.10;67.30;;;;;;5079818;28;19936;-73
2022/03/11 07:15:50;;;;;;;;;;;5.20;67.80;;;;;;5062214;28;19923;-73
2022/03/11 07:18:16;;;;;;;;;;;5.10;67.20;;;;;;5086403;28;19915;-73
2022/03/11 07:20:42;;;;;;;;;;;5.20;67.70;;;;;;5070267;28;19916;-72
2022/03/11 07:23:07;;;;;;;;;;;5.10;67.50;;;;;;5074578;28;20026;-73
2022/03/11 07:25:34;;;;;;;;;;;5.20;67.80;;;;;;5087602;28;20404;-72
2022/03/11 07:28:00;;;;;;;;;;;5.20;67.80;;;;;;5089204;28;19915;-73
2022/03/11 07:30:25;;;;;;;;;;;5.20;67.70;;;;;;5085133;28;20341;-73
2022/03/11 07:32:52;;;;;;;;;;;5.20;67.60;;;;;;5068519;28;19916;-72
2022/03/11 07:35:18;;;;;;;;;;;5.20;67.50;;;;;;5084967;28;19912;-72
2022/03/11 07:37:44;;;;;;;;;;;5.20;67.30;;;;;;5086951;28;19920;-72
2022/03/11 07:40:10;;;;;;;;;;;5.30;67.70;;;;;;5084701;28;19951;-72
2022/03/11 07:42:35;;;;;;;;;;;5.30;67.40;;;;;;5067069;28;19916;-73
2022/03/11 07:45:02;;;;;;;;;;;5.30;66.90;;;;;;5086826;28;20583;-72
2022/03/11 07:47:28;;;;;;;;;;;5.30;67.40;;;;;;5084129;28;19916;-72
2022/03/11 07:49:53;;;;;;;;;;;5.40;67.20;;;;;;5071279;28;19916;-72
2022/03/11 07:52:21;;;;;;;;;;;5.30;67.40;;;;;;5086675;28;19916;-72
2022/03/11 07:54:46;;;;;;;;;;;5.40;67.20;;;;;;5089383;28;19915;-72
2022/03/11 07:57:12;;;;;;;;;;;5.40;67.10;;;;;;5086133;28;20441;-72
2022/03/11 07:59:39;;;;;;;;;;;5.40;66.80;;;;;;5088896;28;19916;-73
2022/03/11 08:02:05;;;;;;;;;;;5.40;67.10;;;;;;5068592;28;19923;-73
2022/03/11 08:04:30;;;;;;;;;;;5.50;67.10;;;;;;5085404;28;19920;-72
2022/03/11 08:06:59;;;;;;;;;;;5.50;67.00;;;;;;5083203;28;19940;-73
2022/03/11 08:09:24;;;;;;;;;;;5.50;67.10;;;;;;5087576;28;19920;-73
2022/03/11 08:11:50;;;;;;;;;;;5.60;67.10;;;;;;5084381;28;19966;-73
2022/03/11 08:14:15;;;;;;;;;;;5.60;67.10;;;;;;5083980;28;19911;-73
2022/03/11 08:16:41;;;;;;;;;;;5.70;67.20;;;;;;5081061;28;19912;-73
2022/03/11 08:19:09;;;;;;;;;;;5.70;67.10;;;;;;5085766;28;19963;-72
2022/03/11 08:21:34;;;;;;;;;;;5.70;66.60;;;;;;5069887;28;20013;-73
2022/03/11 08:24:00;;;;;;;;;;;5.90;66.70;;;;;;5079439;28;20524;-73
2022/03/11 08:26:27;;;;;;;;;;;5.90;66.60;;;;;;5088986;28;19912;-73
2022/03/11 08:28:53;;;;;;;;;;;6.00;66.50;;;;;;5083539;28;19947;-73
2022/03/11 08:31:18;;;;;;;;;;;6.10;66.30;;;;;;5087232;28;19967;-73
2022/03/11 08:33:43;;;;;;;;;;;6.10;66.20;;;;;;5081952;28;19916;-73
2022/03/11 08:36:09;;;;;;;;;;;6.20;66.20;;;;;;5084272;28;19941;-74
2022/03/11 08:38:35;;;;;;;;;;;6.30;66.10;;;;;;5082955;28;19920;-73
2022/03/11 08:41:02;;;;;;;;;;;6.40;66.00;;;;;;5081660;28;19912;-73
2022/03/11 08:43:28;;;;;;;;;;;6.40;65.80;;;;;;5085015;28;19920;-74
2022/03/11 08:45:53;;;;;;;;;;;6.50;65.60;;;;;;5088909;28;19923;-73
2022/03/11 08:48:19;;;;;;;;;;;6.50;65.60;;;;;;5085354;28;19943;-73
2022/03/11 08:50:44;;;;;;;;;;;6.60;65.40;;;;;;5089183;28;20340;-73
2022/03/11 08:53:10;;;;;;;;;;;6.70;65.50;;;;;;5084545;28;20330;-73
2022/03/11 08:55:37;;;;;;;;;;;6.70;65.30;;;;;;5085141;28;20281;-74
2022/03/11 08:58:03;;;;;;;;;;;6.80;65.30;;;;;;5086795;28;19916;-73
2022/03/11 09:00:28;;;;;;;;;;;6.80;65.20;;;;;;5082731;28;19917;-73
2022/03/11 09:02:54;;;;;;;;;;;6.90;65.40;;;;;;5069988;28;20344;-73
2022/03/11 09:05:20;;;;;;;;;;;6.90;65.40;;;;;;5065081;28;19927;-73
2022/03/11 09:07:47;;;;;;;;;;;7.00;65.20;;;;;;5087403;28;19975;-73
2022/03/11 09:10:13;;;;;;;;;;;7.00;65.30;;;;;;5083926;28;20397;-74
2022/03/11 09:12:39;;;;;;;;;;;7.00;65.10;;;;;;5085319;28;20007;-73
2022/03/11 09:15:05;;;;;;;;;;;7.10;65.00;;;;;;5084743;28;20006;-73
2022/03/11 09:17:31;;;;;;;;;;;7.10;65.00;;;;;;5081293;28;19971;-74
2022/03/11 09:19:58;;;;;;;;;;;7.10;65.10;;;;;;5080524;28;19928;-73
2022/03/11 09:22:24;;;;;;;;;;;7.10;65.00;;;;;;5084716;28;19941;-73
2022/03/11 09:24:50;;;;;;;;;;;7.10;64.90;;;;;;5081720;28;19916;-73
2022/03/11 09:27:18;;;;;;;;;;;7.10;64.90;;;;;;5071494;28;19952;-73
2022/03/11 09:29:43;;;;;;;;;;;7.20;65.00;;;;;;5066251;28;20285;-73
2022/03/11 09:32:09;;;;;;;;;;;7.20;65.00;;;;;;5084047;28;19912;-73
2022/03/11 09:34:37;;;;;;;;;;;7.20;65.00;;;;;;5086553;28;19908;-74
2022/03/11 09:37:03;;;;;;;;;;;7.20;65.00;;;;;;5064436;28;19916;-74
2022/03/11 09:39:28;;;;;;;;;;;7.30;65.00;;;;;;5086622;28;19926;-73
2022/03/11 09:41:54;;;;;;;;;;;7.20;65.00;;;;;;5074012;28;19920;-73
2022/03/11 09:44:20;;;;;;;;;;;7.30;65.10;;;;;;5082546;28;20319;-74
2022/03/11 09:46:46;;;;;;;;;;;7.30;65.20;;;;;;5085224;28;19912;-73
2022/03/11 09:49:12;;;;;;;;;;;7.30;65.10;;;;;;5087166;28;19912;-74
2022/03/11 09:51:40;;;;;;;;;;;7.40;65.20;;;;;;5085171;28;19922;-74
2022/03/11 09:54:05;;;;;;;;;;;7.40;65.20;;;;;;5085970;28;19915;-73
2022/03/11 09:56:34;;;;;;;;;;;7.40;65.20;;;;;;5084294;28;20300;-73
2022/03/11 09:58:59;;;;;;;;;;;7.40;64.90;;;;;;5083917;28;19973;-73
2022/03/11 10:01:25;;;;;;;;;;;7.40;64.90;;;;;;5083123;28;19920;-73
2022/03/11 10:03:50;;;;;;;;;;;7.40;64.90;;;;;;5083653;28;20400;-73
2022/03/11 10:06:16;;;;;;;;;;;7.40;64.80;;;;;;5084103;28;19919;-74
2022/03/11 10:08:46;;;;;;;;;;;7.40;64.80;;;;;;5087334;28;19919;-74
2022/03/11 10:11:19;;;;;;;;;;;7.50;64.90;;;;;;5084946;28;19970;-73
2022/03/11 10:13:44;;;;;;;;;;;7.50;64.80;;;;;;5084029;28;20396;-73
2022/03/11 10:16:20;;;;;;;;;;;7.50;64.60;;;;;;5065217;28;19908;-73
2022/03/11 10:19:13;;;;;;;;;;;7.50;64.90;;;;;;5084873;28;19943;-73
2022/03/11 10:21:39;;;;;;;;;;;7.60;64.90;;;;;;5064636;28;19912;-73
2022/03/11 10:24:06;;;;;;;;;;;7.60;64.70;;;;;;5083589;28;20249;-73
2022/03/11 10:26:36;;;;;;;;;;;7.60;64.70;;;;;;5068911;28;19915;-73
2022/03/11 10:29:03;;;;;;;;;;;7.70;64.70;;;;;;5082979;28;19978;-73
2022/03/11 10:31:29;;;;;;;;;;;7.70;64.50;;;;;;5067182;28;20301;-73
2022/03/11 10:34:15;;;;;;;;;;;7.70;64.50;;;;;;5084027;28;19938;-73
2022/03/11 10:36:49;;;;;;;;;;;7.80;64.50;;;;;;5059653;28;19912;-73
2022/03/11 13:21:11;;;;;;;;;;;12.50;55.70;;;;;;5090317;28;19916;-74
2022/03/11 13:23:37;;;;;;;;;;;12.60;55.80;;;;;;5083637;28;20023;-75
2022/03/11 13:26:11;;;;;;;;;;;12.50;54.30;;;;;;5069880;28;20006;-74
2022/03/11 13:28:37;;;;;;;;;;;12.60;55.00;;;;;;5081716;28;19923;-78
2022/03/11 13:31:13;;;;;;;;;;;12.60;55.90;;;;;;5088341;28;19916;-74
2022/03/11 13:33:39;;;;;;;;;;;12.70;55.20;;;;;;5081922;28;19916;-74
2022/03/11 13:36:08;;;;;;;;;;;12.70;55.50;;;;;;5069320;28;19977;-74
2022/03/11 13:38:39;;;;;;;;;;;12.70;54.70;;;;;;5082499;28;19974;-75
2022/03/11 13:41:06;;;;;;;;;;;12.80;54.20;;;;;;5084112;28;19924;-74
2022/03/11 13:43:32;;;;;;;;;;;12.80;54.10;;;;;;5084560;28;20373;-74
2022/03/11 13:45:58;;;;;;;;;;;12.80;53.90;;;;;;5085600;28;19912;-75
2022/03/11 13:48:31;;;;;;;;;;;12.80;54.20;;;;;;5084306;28;19938;-74
2022/03/11 13:51:01;;;;;;;;;;;12.80;54.20;;;;;;5080995;28;19923;-75
2022/03/11 13:53:27;;;;;;;;;;;12.90;53.40;;;;;;5084809;28;20270;-75
2022/03/11 13:55:53;;;;;;;;;;;12.90;53.70;;;;;;5081204;28;19924;-74
2022/03/11 13:58:20;;;;;;;;;;;12.90;53.60;;;;;;5086913;28;19913;-75
2022/03/11 14:00:47;;;;;;;;;;;13.00;53.10;;;;;;5083303;28;20432;-74
2022/03/11 14:03:17;;;;;;;;;;;12.90;53.00;;;;;;5068891;28;19919;-75
2022/03/11 14:08:49;;;;;;;;;;;13.00;54.20;;;;;;5071447;28;20441;-75
2022/03/11 14:11:15;;;;;;;;;;;12.90;53.90;;;;;;5083250;28;19912;-69
2022/03/11 14:13:40;;;;;;;;;;;13.00;53.70;;;;;;5076245;28;19919;-73
2022/03/11 14:16:07;;;;;;;;;;;13.10;54.20;;;;;;5081957;28;19935;-72
2022/03/11 14:18:33;;;;;;;;;;;13.10;54.10;;;;;;5087723;28;19920;-72
2022/03/11 14:20:58;;;;;;;;;;;13.20;54.30;;;;;;5086580;28;20310;-72
2022/03/11 14:23:24;;;;;;;;;;;13.20;54.10;;;;;;5085715;28;19916;-72
2022/03/11 14:25:49;;;;;;;;;;;13.20;54.30;;;;;;5083817;28;19977;-72
2022/03/11 14:37:27;;;;;;;;;;;13.10;52.70;;;;;;5084084;28;20011;-72
2022/03/11 14:39:53;;;;;;;;;;;13.10;51.80;;;;;;5083908;28;20011;-72
2022/03/11 14:42:19;;;;;;;;;;;13.10;52.30;;;;;;5082667;28;20364;-72
2022/03/11 14:44:45;;;;;;;;;;;13.10;53.20;;;;;;5067701;28;19912;-72
2022/03/11 14:47:12;;;;;;;;;;;13.10;53.50;;;;;;5084156;28;19937;-72
2022/03/11 14:49:38;;;;;;;;;;;13.00;53.50;;;;;;5086086;28;19924;-72
2022/03/11 14:52:03;;;;;;;;;;;13.00;53.30;;;;;;5082648;28;19920;-72
2022/03/11 14:54:31;;;;;;;;;;;13.00;52.60;;;;;;5080867;28;19935;-72
2022/03/11 14:56:56;;;;;;;;;;;13.00;51.90;;;;;;5379905;22;20055;-69
2022/03/11 14:59:25;;;;;;;;;;;13.00;51.50;;;;;;5080015;28;20738;-69
2022/03/11 15:01:51;;;;;;;;;;;13.00;52.00;;;;;;5082465;28;20436;-69
2022/03/11 15:04:16;;;;;;;;;;;13.00;51.30;;;;;;5077030;28;19916;-69
2022/03/11 15:06:41;;;;;;;;;;;13.00;49.50;;;;;;5083285;28;19982;-70
2022/03/11 15:09:07;;;;;;;;;;;13.00;50.90;;;;;;5082375;28;19943;-69
2022/03/11 15:11:32;;;;;;;;;;;13.00;51.90;;;;;;5084324;28;19958;-70
2022/03/11 15:14:00;;;;;;;;;;;12.90;49.50;;;;;;5079188;28;19916;-70
2022/03/11 15:16:26;;;;;;;;;;;12.90;50.30;;;;;;5084448;28;20330;-69
2022/03/11 15:18:51;;;;;;;;;;;13.00;50.40;;;;;;5078032;28;19994;-69
2022/03/11 15:21:17;;;;;;;;;;;12.90;51.10;;;;;;5085479;28;19920;-69
2022/03/11 15:23:42;;;;;;;;;;;12.90;50.80;;;;;;5081124;28;19959;-69
2022/03/11 15:26:08;;;;;;;;;;;12.90;50.80;;;;;;5067657;28;19912;-69
2022/03/11 15:28:33;;;;;;;;;;;12.90;51.20;;;;;;5076473;28;19995;-69
2022/03/11 15:30:59;;;;;;;;;;;13.00;52.30;;;;;;5079425;28;19973;-69
2022/03/11 15:33:25;;;;;;;;;;;13.00;52.50;;;;;;5075498;28;20384;-69
2022/03/11 15:35:51;;;;;;;;;;;13.00;52.70;;;;;;5079842;28;19926;-69
2022/03/11 15:38:16;;;;;;;;;;;13.00;52.70;;;;;;5081513;28;19938;-69
2022/03/11 15:40:42;;;;;;;;;;;13.00;52.60;;;;;;5065939;28;19999;-69
2022/03/11 15:43:08;;;;;;;;;;;13.00;52.30;;;;;;5069833;28;19947;-70
2022/03/11 15:45:34;;;;;;;;;;;13.00;52.40;;;;;;5083491;28;20344;-70
2022/03/11 15:48:00;;;;;;;;;;;13.00;52.20;;;;;;5079213;28;19916;-69
2022/03/11 15:50:26;;;;;;;;;;;13.20;51.10;;;;;;5079674;28;19912;-72
2022/03/11 15:52:52;;;;;;;;;;;13.30;49.50;;;;;;5069081;28;19923;-72
2022/03/11 15:55:19;;;;;;;;;;;13.20;50.90;;;;;;5065223;28;19916;-72
2022/03/11 15:57:45;;;;;;;;;;;13.20;50.50;;;;;;5084530;28;19920;-72
2022/03/11 16:00:12;;;;;;;;;;;13.10;49.90;;;;;;5068612;28;20316;-72
2022/03/11 16:02:37;;;;;;;;;;;13.10;49.70;;;;;;5087259;28;19916;-72
2022/03/11 16:05:03;;;;;;;;;;;13.10;50.70;;;;;;5084688;28;20390;-72
2022/03/11 16:07:28;;;;;;;;;;;13.10;50.30;;;;;;5085953;28;19916;-72
2022/03/11 16:09:54;;;;;;;;;;;13.10;50.50;;;;;;5082882;28;19916;-72
2022/03/11 16:12:19;;;;;;;;;;;13.10;51.30;;;;;;5067994;28;19912;-72
2022/03/11 16:14:45;;;;;;;;;;;13.00;51.40;;;;;;5084312;28;20003;-72
2022/03/11 16:17:13;;;;;;;;;;;13.00;50.90;;;;;;5086510;28;19908;-72
2022/03/11 16:19:38;;;;;;;;;;;12.90;51.20;;;;;;5086346;28;20612;-72
2022/03/11 16:22:04;;;;;;;;;;;12.80;51.80;;;;;;5080955;28;20014;-72
2022/03/11 16:24:29;;;;;;;;;;;12.80;52.80;;;;;;5085911;28;19919;-71
2022/03/11 16:26:55;;;;;;;;;;;12.70;51.90;;;;;;5061215;28;19955;-71
2022/03/11 16:29:20;;;;;;;;;;;12.70;51.00;;;;;;5081569;28;19952;-70
2022/03/11 16:31:46;;;;;;;;;;;12.60;51.80;;;;;;5082245;28;19912;-71
2022/03/11 16:34:12;;;;;;;;;;;12.60;52.60;;;;;;5085831;28;19916;-71
2022/03/11 16:36:39;;;;;;;;;;;12.60;52.60;;;;;;5084674;28;20382;-70
2022/03/11 16:39:05;;;;;;;;;;;12.50;52.60;;;;;;5085915;28;20282;-70
2022/03/11 16:41:30;;;;;;;;;;;12.40;51.10;;;;;;5082476;28;19923;-71
2022/03/11 16:43:56;;;;;;;;;;;12.30;52.20;;;;;;5085377;28;19912;-70
2022/03/11 16:46:21;;;;;;;;;;;12.30;51.90;;;;;;5083172;28;19919;-70
2022/03/11 16:48:47;;;;;;;;;;;12.20;51.00;;;;;;5086192;28;19920;-70
2022/03/11 16:51:13;;;;;;;;;;;12.10;51.70;;;;;;5078874;28;20314;-70
2022/03/11 16:53:39;;;;;;;;;;;12.10;52.00;;;;;;5083531;28;19919;-71
2022/03/11 16:56:05;;;;;;;;;;;12.00;53.40;;;;;;5084813;28;19973;-70
2022/03/11 16:58:30;;;;;;;;;;;12.00;52.80;;;;;;5066488;28;19969;-71
2022/03/11 17:00:56;;;;;;;;;;;11.90;52.10;;;;;;5082976;28;20587;-70
2022/03/11 17:03:21;;;;;;;;;;;11.80;51.90;;;;;;5082708;28;19923;-70
2022/03/11 17:05:47;;;;;;;;;;;11.80;52.60;;;;;;5086316;28;20595;-71
2022/03/11 17:08:12;;;;;;;;;;;11.70;53.10;;;;;;5082482;28;19948;-70
2022/03/11 17:10:39;;;;;;;;;;;11.60;53.10;;;;;;5084768;28;19923;-71
2022/03/11 17:13:04;;;;;;;;;;;11.60;53.50;;;;;;5079603;28;20074;-71